Time;durP1;ratioP1;P1;durP2;ratioP2;P2;SDS_P1;SDS_P2;PMS_P1;PMS_P2;Temp;Humidity;BMP_temperature;BMP_pressure;BME280_temperature;BME280_humidity;BME280_pressure;Samples;Min_cycle;Max_cycle;Signal;HPM_P1;HPM_P2
2022/07/25 00:01:48;;;;;;;9.23;6.37;;;;;;;15.56;72.63;95787.30;1795466;80;20998;-64
2022/07/25 00:04:14;;;;;;;9.50;7.17;;;;;;;15.51;73.08;95791.05;1795287;80;21484;-64
2022/07/25 00:06:42;;;;;;;7.37;6.67;;;;;;;15.48;72.87;95800.00;1795464;80;20995;-65
2022/07/25 00:09:09;;;;;;;8.18;7.28;;;;;;;15.55;72.73;95790.89;1795128;80;21014;-65
2022/07/25 00:11:36;;;;;;;8.68;7.03;;;;;;;15.64;72.46;95794.14;1795207;80;21090;-65
2022/07/25 00:14:04;;;;;;;8.03;7.20;;;;;;;15.69;72.13;95793.09;1795372;80;21034;-64
2022/07/25 00:16:31;;;;;;;9.88;7.25;;;;;;;15.78;72.11;95792.77;1795260;80;21055;-64
2022/07/25 00:18:57;;;;;;;8.05;6.87;;;;;;;15.77;71.66;95789.72;1795498;80;21445;-65
2022/07/25 00:21:24;;;;;;;7.05;6.35;;;;;;;15.79;71.63;95786.52;1795420;80;21539;-65
2022/07/25 00:23:50;;;;;;;7.72;6.92;;;;;;;15.64;71.29;95786.16;1795405;80;21030;-65
2022/07/25 00:26:17;;;;;;;7.45;6.75;;;;;;;15.51;71.38;95784.40;1795184;80;21042;-65
2022/07/25 00:28:44;;;;;;;7.30;6.60;;;;;;;15.39;71.68;95787.48;1795514;80;21504;-64
2022/07/25 00:31:10;;;;;;;8.08;6.95;;;;;;;15.29;72.81;95789.11;1795349;80;21022;-64
2022/07/25 00:33:39;;;;;;;10.08;8.03;;;;;;;15.12;73.73;95787.05;1790215;80;21071;-64
2022/07/25 00:36:07;;;;;;;9.80;8.80;;;;;;;15.10;72.75;95789.34;1795772;80;20998;-65
2022/07/25 00:38:34;;;;;;;7.92;7.15;;;;;;;15.15;72.84;95776.30;1795611;80;21057;-64
2022/07/25 00:41:03;;;;;;;9.58;8.23;;;;;;;15.05;74.15;95784.64;1795833;80;20970;-64
2022/07/25 00:43:30;;;;;;;8.90;8.00;;;;;;;14.90;75.11;95789.53;1795530;80;20998;-64
2022/07/25 00:45:58;;;;;;;8.48;7.53;;;;;;;14.79;74.63;95785.03;1795445;80;21437;-64
2022/07/25 00:48:27;;;;;;;8.85;8.00;;;;;;;14.69;75.79;95788.44;1795618;80;21066;-65
2022/07/25 00:50:55;;;;;;;7.67;6.85;;;;;;;14.66;75.47;95789.84;1795119;80;21031;-64
2022/07/25 00:53:23;;;;;;;7.85;6.95;;;;;;;14.60;76.09;95786.52;1795001;80;21081;-64
2022/07/25 00:55:50;;;;;;;8.30;7.30;;;;;;;14.59;76.27;95780.78;1795251;80;21071;-64
2022/07/25 00:58:17;;;;;;;10.58;7.33;;;;;;;14.61;75.66;95778.95;1795150;80;21022;-64
2022/07/25 01:00:44;;;;;;;8.00;7.17;;;;;;;14.54;74.87;95778.30;1795346;80;21555;-64
2022/07/25 01:03:11;;;;;;;8.08;6.75;;;;;;;14.56;75.06;95781.75;1795648;80;21493;-64
2022/07/25 01:05:38;;;;;;;8.33;7.53;;;;;;;14.57;75.46;95776.01;1795192;80;21079;-64
2022/07/25 01:08:05;;;;;;;8.75;7.83;;;;;;;14.52;75.14;95777.91;1791665;80;21015;-64
2022/07/25 01:10:32;;;;;;;9.18;7.83;;;;;;;14.45;75.89;95772.77;1786948;80;21069;-65
2022/07/25 01:12:59;;;;;;;9.00;8.10;;;;;;;14.45;75.88;95771.91;1786875;80;21011;-64
2022/07/25 01:15:27;;;;;;;9.00;7.35;;;;;;;14.39;76.30;95772.08;1787254;80;20975;-64
2022/07/25 01:17:54;;;;;;;8.35;7.55;;;;;;;14.42;75.81;95772.01;1787243;80;21003;-64
2022/07/25 01:20:24;;;;;;;9.30;8.00;;;;;;;14.43;75.36;95770.61;1787156;80;21030;-65
2022/07/25 01:22:52;;;;;;;8.60;7.15;;;;;;;14.49;75.19;95763.80;1787264;80;21034;-65
2022/07/25 01:25:20;;;;;;;10.43;7.58;;;;;;;14.46;75.27;95762.58;1786989;80;21569;-64
2022/07/25 01:27:48;;;;;;;8.18;7.37;;;;;;;14.45;75.38;95759.49;1787062;80;21007;-64
2022/07/25 01:30:16;;;;;;;7.87;6.58;;;;;;;14.42;75.29;95762.25;1787093;80;21014;-64
2022/07/25 01:32:44;;;;;;;14.78;7.45;;;;;;;14.37;75.34;95762.85;1787228;80;21011;-65
2022/07/25 01:35:13;;;;;;;8.88;7.97;;;;;;;14.35;75.19;95761.16;1786800;80;20980;-64
2022/07/25 01:37:41;;;;;;;8.38;7.45;;;;;;;14.44;75.32;95762.22;1787193;80;20943;-65
2022/07/25 01:40:08;;;;;;;8.98;7.83;;;;;;;14.53;75.34;95763.70;1787109;80;20997;-64
2022/07/25 01:42:35;;;;;;;11.15;7.67;;;;;;;14.58;75.15;95761.80;1786978;80;20991;-64
2022/07/25 01:45:04;;;;;;;8.63;7.72;;;;;;;14.46;74.73;95756.37;1787173;80;20995;-64
2022/07/25 01:47:30;;;;;;;8.95;8.05;;;;;;;14.37;75.19;95753.56;1786974;80;21034;-64
2022/07/25 01:49:57;;;;;;;9.95;8.28;;;;;;;14.36;75.39;95753.59;1787125;80;21536;-64
2022/07/25 01:52:24;;;;;;;12.18;8.60;;;;;;;14.39;75.21;95752.16;1787211;80;20995;-65
2022/07/25 01:54:50;;;;;;;11.48;8.63;;;;;;;14.36;75.22;95756.25;1787086;80;21003;-64
2022/07/25 01:57:17;;;;;;;9.58;8.58;;;;;;;14.31;75.25;95754.20;1787086;80;20976;-64
2022/07/25 01:59:43;;;;;;;9.70;8.40;;;;;;;14.24;75.05;95751.74;1786880;80;21090;-65
2022/07/25 02:02:10;;;;;;;9.63;8.00;;;;;;;14.20;74.95;95750.09;1786961;80;21513;-64
2022/07/25 02:04:37;;;;;;;9.33;8.38;;;;;;;14.19;74.76;95751.48;1787167;80;21043;-64
2022/07/25 02:07:04;;;;;;;10.28;7.97;;;;;;;14.12;75.43;95753.44;1786895;80;21003;-64
2022/07/25 02:09:31;;;;;;;14.83;8.75;;;;;;;13.98;75.29;95755.62;1794829;80;21018;-64
2022/07/25 02:11:57;;;;;;;11.33;8.58;;;;;;;13.94;75.16;95754.85;1795371;80;20975;-64
2022/07/25 02:14:24;;;;;;;10.50;8.85;;;;;;;13.85;75.91;95757.30;1795537;80;21087;-64
2022/07/25 02:16:51;;;;;;;9.18;8.23;;;;;;;13.83;76.56;95751.19;1795621;80;20983;-64
2022/07/25 02:19:17;;;;;;;9.78;8.08;;;;;;;13.78;77.12;95751.78;1795276;80;21014;-64
2022/07/25 02:21:44;;;;;;;7.95;7.05;;;;;;;13.71;76.96;95754.19;1795577;80;21488;-64
2022/07/25 02:24:11;;;;;;;9.53;7.47;;;;;;;13.69;76.81;95753.82;1795406;80;21063;-64
2022/07/25 02:26:38;;;;;;;10.60;7.58;;;;;;;13.75;76.36;95754.95;1795286;80;21010;-64
2022/07/25 02:29:04;;;;;;;8.30;7.28;;;;;;;13.82;76.26;95758.72;1795636;80;20991;-65
2022/07/25 02:31:31;;;;;;;8.25;7.45;;;;;;;13.80;76.80;95757.88;1795483;80;20998;-64
2022/07/25 02:33:58;;;;;;;8.45;7.17;;;;;;;13.72;76.06;95755.05;1795352;80;21046;-65
2022/07/25 02:36:24;;;;;;;7.83;6.95;;;;;;;13.74;76.39;95758.08;1795439;80;20999;-65
2022/07/25 02:38:51;;;;;;;7.55;6.12;;;;;;;13.72;76.28;95755.91;1795480;80;21098;-64
2022/07/25 02:41:17;;;;;;;10.30;7.28;;;;;;;13.62;75.94;95761.06;1795608;80;20955;-64
2022/07/25 02:43:44;;;;;;;7.58;6.78;;;;;;;13.55;76.76;95762.14;1795028;80;21086;-65
2022/07/25 02:46:11;;;;;;;8.60;6.95;;;;;;;13.58;77.17;95762.05;1795249;80;21011;-64
2022/07/25 02:48:37;;;;;;;8.85;7.80;;;;;;;13.61;77.04;95767.30;1764539;80;21026;-65
2022/07/25 02:51:04;;;;;;;9.88;7.35;;;;;;;13.68;76.91;95760.88;1795108;80;21088;-65
2022/07/25 02:53:31;;;;;;;9.25;8.25;;;;;;;13.68;76.08;95761.34;1795666;80;21014;-65
2022/07/25 02:55:57;;;;;;;8.15;7.30;;;;;;;13.67;76.79;95773.73;1795358;80;20963;-65
2022/07/25 02:58:24;;;;;;;10.80;7.40;;;;;;;13.59;76.89;95767.78;1795564;80;20951;-64
2022/07/25 03:00:51;;;;;;;8.30;7.42;;;;;;;13.64;76.64;95765.41;1795706;80;21003;-64
2022/07/25 03:03:17;;;;;;;9.73;7.33;;;;;;;13.59;75.48;95759.83;1795543;80;20936;-64
2022/07/25 03:05:44;;;;;;;10.07;8.10;;;;;;;13.52;76.18;95761.77;1795402;80;21474;-65
2022/07/25 03:08:10;;;;;;;8.85;7.42;;;;;;;13.61;76.71;95762.86;1793106;80;21537;-65
2022/07/25 03:10:37;;;;;;;18.77;8.40;;;;;;;13.56;76.80;95759.46;1787127;80;20979;-64
2022/07/25 03:13:03;;;;;;;11.10;8.08;;;;;;;13.59;76.69;95766.00;1786917;80;21011;-64
2022/07/25 03:15:30;;;;;;;8.68;7.78;;;;;;;13.56;76.27;95763.90;1787192;80;21497;-64
2022/07/25 03:17:57;;;;;;;8.18;7.37;;;;;;;13.58;76.26;95767.35;1786908;80;20979;-65
2022/07/25 03:20:24;;;;;;;9.33;7.55;;;;;;;13.57;76.47;95765.63;1787073;80;20987;-64
2022/07/25 03:22:51;;;;;;;9.60;8.60;;;;;;;13.43;76.13;95766.02;1787339;80;20999;-64
2022/07/25 03:25:18;;;;;;;9.65;7.95;;;;;;;13.32;77.20;95755.69;1786994;80;21014;-64
2022/07/25 03:27:45;;;;;;;10.48;8.95;;;;;;;13.31;77.42;95753.09;1786795;80;21042;-65
2022/07/25 03:30:12;;;;;;;9.45;8.55;;;;;;;13.35;77.38;95753.41;1787146;80;21473;-64
2022/07/25 03:32:40;;;;;;;10.53;8.30;;;;;;;13.38;77.27;95754.21;1786955;80;21034;-64
2022/07/25 03:35:08;;;;;;;11.53;8.53;;;;;;;13.38;76.71;95755.97;1787222;80;21018;-65
2022/07/25 03:37:35;;;;;;;10.98;8.25;;;;;;;13.40;76.53;95761.64;1787066;80;21472;-64
2022/07/25 03:40:03;;;;;;;12.88;8.78;;;;;;;13.40;76.51;95760.31;1787079;80;20999;-65
2022/07/25 03:42:30;;;;;;;11.12;8.93;;;;;;;13.42;76.75;95760.28;1787023;80;21090;-65
2022/07/25 03:44:56;;;;;;;9.38;8.20;;;;;;;13.45;76.75;95760.20;1787138;80;21445;-64
2022/07/25 03:47:23;;;;;;;18.75;9.03;;;;;;;13.48;77.60;95758.81;1786972;80;21493;-64
2022/07/25 03:49:49;;;;;;;12.90;8.08;;;;;;;13.56;77.57;95769.20;1787474;80;21010;-65
2022/07/25 03:52:16;;;;;;;11.63;8.10;;;;;;;13.63;76.64;95758.81;1786874;80;21075;-65
2022/07/25 03:54:43;;;;;;;11.63;7.78;;;;;;;13.50;76.76;95755.63;1787045;80;20982;-65
2022/07/25 03:57:11;;;;;;;9.28;8.23;;;;;;;13.43;77.30;95751.44;1787019;80;20971;-65
2022/07/25 03:59:38;;;;;;;9.25;7.70;;;;;;;13.41;78.05;95752.80;1787174;80;21042;-65
2022/07/25 04:02:04;;;;;;;8.28;7.45;;;;;;;13.44;78.29;95754.95;1786947;80;21547;-65
2022/07/25 04:04:31;;;;;;;11.08;8.08;;;;;;;13.54;77.94;95761.28;1787129;80;20947;-64
2022/07/25 04:06:58;;;;;;;12.37;8.28;;;;;;;13.67;78.73;95756.97;1754299;80;21037;-65
2022/07/25 04:09:24;;;;;;;11.95;8.55;;;;;;;13.91;78.43;95755.37;1786664;80;21031;-65
2022/07/25 04:11:51;;;;;;;10.70;8.65;;;;;;;14.12;77.82;95750.78;1786631;80;20991;-65
2022/07/25 04:14:18;;;;;;;9.55;8.23;;;;;;;14.33;77.00;95744.41;1786888;80;20994;-65
2022/07/25 04:16:44;;;;;;;12.07;9.03;;;;;;;14.50;76.28;95738.98;1786883;80;21039;-65
2022/07/25 04:19:11;;;;;;;10.90;8.85;;;;;;;14.63;75.99;95738.63;1787213;80;20995;-65
2022/07/25 04:21:38;;;;;;;11.15;7.87;;;;;;;14.83;76.15;95733.99;1786734;80;21075;-65
2022/07/25 04:24:05;;;;;;;14.75;9.28;;;;;;;14.97;75.64;95731.75;1787181;80;21006;-65
2022/07/25 04:26:32;;;;;;;11.57;9.35;;;;;;;15.14;75.63;95726.73;1786751;80;21082;-65
2022/07/25 04:29:01;;;;;;;15.65;10.08;;;;;;;15.30;75.04;95729.73;1787219;80;21026;-65
2022/07/25 04:31:27;;;;;;;12.88;10.53;;;;;;;15.43;74.67;95727.97;1786976;80;21015;-65
2022/07/25 04:33:54;;;;;;;15.68;9.75;;;;;;;15.48;74.34;95727.34;1787163;80;21039;-65
2022/07/25 04:36:20;;;;;;;15.18;9.68;;;;;;;15.58;74.30;95733.59;1786646;80;21014;-65
2022/07/25 04:38:47;;;;;;;11.90;9.10;;;;;;;15.67;73.80;95728.39;1787214;80;21018;-65
2022/07/25 04:41:14;;;;;;;15.00;9.73;;;;;;;15.74;73.50;95735.27;1786727;80;21049;-65
2022/07/25 04:43:40;;;;;;;17.65;9.78;;;;;;;15.82;73.62;95732.32;1786948;80;20990;-65
2022/07/25 04:46:07;;;;;;;15.35;9.33;;;;;;;15.93;73.07;95735.94;1787103;80;20999;-65
2022/07/25 04:48:33;;;;;;;13.55;9.50;;;;;;;15.99;72.90;95741.02;1787086;80;21047;-65
2022/07/25 04:51:01;;;;;;;16.48;8.90;;;;;;;16.10;72.54;95732.18;1786581;80;21540;-65
2022/07/25 04:53:27;;;;;;;9.60;8.53;;;;;;;16.19;71.79;95736.27;1787044;80;20983;-65
2022/07/25 04:55:54;;;;;;;13.25;8.30;;;;;;;16.27;70.91;95731.51;1786771;80;21002;-65
2022/07/25 04:58:21;;;;;;;9.68;8.68;;;;;;;16.31;71.50;95729.14;1787031;80;20982;-65
2022/07/25 05:00:47;;;;;;;12.63;8.95;;;;;;;16.43;71.33;95727.34;1786861;80;21505;-65
2022/07/25 05:03:14;;;;;;;11.88;8.63;;;;;;;16.55;71.16;95722.44;1787151;80;20994;-65
2022/07/25 05:16:44;;;;;;;11.90;8.70;;;;;;;18.08;67.72;95709.23;1860171;77;22813;-65
2022/07/25 05:19:11;;;;;;;11.30;8.75;;;;;;;18.02;67.80;95705.52;1832652;78;21011;-65
2022/07/25 05:21:38;;;;;;;10.30;8.93;;;;;;;18.06;67.80;95707.09;1832305;78;21023;-65
2022/07/25 05:24:06;;;;;;;11.12;8.40;;;;;;;18.10;66.56;95703.83;1832243;78;21031;-65
2022/07/25 05:26:33;;;;;;;13.58;9.13;;;;;;;18.15;66.50;95699.14;1832362;78;21004;-65
2022/07/25 05:28:59;;;;;;;14.43;9.53;;;;;;;18.21;66.37;95708.66;1832300;78;20996;-65
2022/07/25 05:31:26;;;;;;;16.97;9.95;;;;;;;18.34;66.98;95709.80;1832428;78;20983;-65
2022/07/25 05:33:53;;;;;;;22.17;9.53;;;;;;;18.47;67.23;95705.63;1832541;78;21023;-65
2022/07/25 05:36:19;;;;;;;18.77;9.45;;;;;;;18.61;66.93;95712.97;1832310;78;21476;-65
2022/07/25 05:38:46;;;;;;;14.58;9.28;;;;;;;18.75;66.79;95710.98;1832394;78;21000;-65
2022/07/25 05:41:12;;;;;;;18.65;8.60;;;;;;;18.89;66.21;95711.66;1832495;78;21023;-65
2022/07/25 05:43:41;;;;;;;19.82;8.43;;;;;;;19.03;65.33;95704.68;1832304;78;20995;-65
2022/07/25 05:46:08;;;;;;;11.45;8.68;;;;;;;19.15;65.22;95699.20;1832184;78;21031;-65
2022/07/25 05:48:34;;;;;;;13.30;8.83;;;;;;;19.30;64.52;95701.53;1832302;78;21055;-65
2022/07/25 05:51:01;;;;;;;15.20;8.13;;;;;;;19.46;63.86;95702.48;1832014;78;21084;-65
2022/07/25 05:53:28;;;;;;;9.35;7.42;;;;;;;19.60;63.70;95698.22;1832311;78;20979;-65
2022/07/25 05:55:55;;;;;;;13.68;7.65;;;;;;;19.74;63.14;95694.86;1832300;78;21023;-65
2022/07/25 05:58:22;;;;;;;12.35;7.78;;;;;;;19.89;62.38;95693.56;1832661;78;20976;-65
2022/07/25 06:00:50;;;;;;;8.65;7.85;;;;;;;20.02;61.92;95691.56;1832612;78;21019;-65
2022/07/25 06:03:17;;;;;;;13.90;8.05;;;;;;;20.17;61.25;95689.39;1832333;78;21015;-65
2022/07/25 06:05:46;;;;;;;12.40;7.08;;;;;;;20.34;60.82;95691.14;1832109;78;21027;-65
2022/07/25 06:08:13;;;;;;;9.65;7.65;;;;;;;20.50;60.20;95687.13;1831980;78;21003;-65
2022/07/25 06:10:41;;;;;;;12.73;8.03;;;;;;;20.67;60.31;95684.87;1832068;78;21016;-65
2022/07/25 06:13:08;;;;;;;17.10;8.08;;;;;;;20.87;59.02;95677.02;1832288;78;20957;-65
2022/07/25 06:15:35;;;;;;;14.80;8.00;;;;;;;21.05;59.34;95673.25;1833812;78;21027;-65
2022/07/25 06:18:01;;;;;;;9.83;8.05;;;;;;;21.24;58.01;95674.84;1835194;78;21485;-66
2022/07/25 06:20:28;;;;;;;10.93;7.53;;;;;;;21.38;57.54;95670.41;1835519;78;20959;-65
2022/07/25 06:22:55;;;;;;;12.23;7.95;;;;;;;21.48;56.75;95669.87;1835157;78;21027;-65
2022/07/25 06:25:22;;;;;;;10.40;7.85;;;;;;;21.60;56.34;95672.67;1835020;78;21018;-65
2022/07/25 06:27:48;;;;;;;9.20;8.40;;;;;;;21.72;55.96;95672.41;1835210;78;21004;-65
2022/07/25 06:30:15;;;;;;;11.40;7.90;;;;;;;21.85;55.32;95667.59;1835423;78;20998;-65
2022/07/25 06:32:42;;;;;;;10.32;8.73;;;;;;;21.97;55.77;95669.06;1835326;78;21038;-65
2022/07/25 06:35:09;;;;;;;12.30;8.88;;;;;;;22.15;56.32;95665.70;1835506;78;20964;-65
2022/07/25 06:37:38;;;;;;;13.43;9.08;;;;;;;22.33;56.00;95669.07;1835025;78;21003;-65
2022/07/25 06:40:07;;;;;;;12.15;8.98;;;;;;;22.46;55.10;95664.63;1835032;78;21023;-66
2022/07/25 06:42:42;;;;;;;11.08;8.60;;;;;;;22.54;55.24;95660.09;1835203;78;21054;-65
2022/07/25 06:45:11;;;;;;;9.10;8.20;;;;;;;22.66;54.62;95661.13;1759891;81;21030;-66
2022/07/25 06:47:40;;;;;;;9.00;8.15;;;;;;;22.84;54.08;95656.36;1768084;81;21026;-65
2022/07/25 06:50:11;;;;;;;10.18;9.18;;;;;;;22.96;54.48;95649.31;1767997;81;21030;-65
2022/07/25 06:52:39;;;;;;;12.85;8.03;;;;;;;23.08;53.71;95654.77;1767928;81;20998;-65
2022/07/25 06:55:09;;;;;;;10.58;7.90;;;;;;;23.18;53.02;95650.09;1767937;81;21069;-65
2022/07/25 06:57:36;;;;;;;9.45;8.15;;;;;;;23.34;52.79;95644.06;1768004;81;21017;-65
2022/07/25 07:00:09;;;;;;;9.18;8.28;;;;;;;23.53;52.50;95649.02;1768136;81;20971;-66
2022/07/25 07:02:52;;;;;;;8.65;7.80;;;;;;;23.64;51.57;95638.38;1768032;81;21038;-65
2022/07/25 07:05:20;;;;;;;8.98;8.13;;;;;;;23.82;51.24;95640.80;1768171;81;21554;-65
2022/07/25 07:07:46;;;;;;;8.48;7.58;;;;;;;23.93;49.21;95639.05;1767998;81;20954;-65
2022/07/25 07:10:13;;;;;;;11.12;7.65;;;;;;;24.06;48.63;95628.74;1767992;81;21014;-65
2022/07/25 07:12:40;;;;;;;11.25;7.58;;;;;;;24.18;49.00;95626.52;1768056;81;21018;-66
2022/07/25 07:15:07;;;;;;;9.25;7.55;;;;;;;24.33;48.74;95625.90;1766630;81;20979;-65
2022/07/25 07:17:34;;;;;;;9.00;8.10;;;;;;;24.39;46.41;95626.33;1759706;81;21022;-65
2022/07/25 07:20:01;;;;;;;8.93;6.85;;;;;;;24.43;46.35;95627.44;1759666;81;21003;-65
2022/07/25 07:22:27;;;;;;;8.50;6.17;;;;;;;24.49;45.38;95630.56;1759765;81;21014;-65
2022/07/25 07:24:54;;;;;;;9.30;6.08;;;;;;;24.45;43.19;95631.78;1759607;81;21074;-66
2022/07/25 07:27:23;;;;;;;7.47;6.05;;;;;;;24.41;41.94;95631.59;1759563;81;21003;-65
2022/07/25 07:29:50;;;;;;;6.62;5.92;;;;;;;24.37;40.39;95632.31;1759351;81;21062;-65
2022/07/25 07:32:17;;;;;;;8.05;5.85;;;;;;;24.47;41.61;95631.19;1759701;81;21480;-65
2022/07/25 07:34:44;;;;;;;10.63;6.42;;;;;;;24.72;41.24;95622.61;1759281;81;20995;-65
2022/07/25 07:37:11;;;;;;;8.50;6.20;;;;;;;24.96;39.86;95631.58;1759683;81;21011;-65
2022/07/25 07:39:38;;;;;;;8.20;6.62;;;;;;;25.15;40.75;95624.31;1759647;81;21047;-66
2022/07/25 07:42:06;;;;;;;11.57;7.22;;;;;;;25.31;41.10;95621.33;1759567;81;21051;-66
2022/07/25 07:44:32;;;;;;;11.45;7.65;;;;;;;25.46;41.64;95619.29;1759649;81;21019;-65
2022/07/25 07:47:01;;;;;;;10.35;7.20;;;;;;;25.60;41.01;95623.14;1759638;81;20987;-65
2022/07/25 07:49:28;;;;;;;10.05;6.78;;;;;;;25.62;41.40;95615.75;1759418;81;20991;-65
2022/07/25 07:51:55;;;;;;;8.03;6.25;;;;;;;25.68;39.25;95616.64;1759774;81;21476;-65
2022/07/25 07:57:07;;;;;;;10.28;6.37;;;;;;;25.94;38.35;95627.27;1759615;81;21484;-65
2022/07/25 07:59:34;;;;;;;8.88;5.80;;;;;;;25.98;37.59;95630.58;1759660;81;21003;-66
2022/07/25 08:02:01;;;;;;;6.45;5.85;;;;;;;26.10;37.55;95621.49;1759314;81;21022;-66
2022/07/25 08:04:27;;;;;;;8.88;4.60;;;;;;;26.24;37.22;95623.95;1759256;81;21027;-66
2022/07/25 08:06:54;;;;;;;6.97;5.08;;;;;;;26.44;35.60;95627.76;1759655;81;21058;-66
2022/07/25 08:09:20;;;;;;;7.65;5.30;;;;;;;26.61;32.53;95622.36;1759177;81;21054;-66
2022/07/25 08:11:47;;;;;;;7.87;4.60;;;;;;;26.72;33.71;95617.41;1759526;81;21063;-66
2022/07/25 08:14:14;;;;;;;5.35;4.50;;;;;;;26.85;31.22;95620.81;1759313;81;21086;-65
2022/07/25 08:16:40;;;;;;;9.85;4.95;;;;;;;26.97;31.62;95617.09;1754757;81;21532;-65
2022/07/25 08:19:07;;;;;;;6.85;5.03;;;;;;;27.07;29.84;95618.53;1752929;81;20983;-66
2022/07/25 08:21:34;;;;;;;6.15;5.17;;;;;;;27.13;30.73;95619.86;1780140;80;20968;-65
2022/07/25 08:24:01;;;;;;;5.20;4.55;;;;;;;27.20;29.36;95612.98;1779742;81;21000;-65
2022/07/25 08:26:29;;;;;;;4.95;4.55;;;;;;;27.30;29.94;95616.63;1779984;81;21004;-65
2022/07/25 08:28:56;;;;;;;5.70;5.17;;;;;;;27.45;27.93;95609.04;1779607;81;21111;-66
2022/07/25 08:31:23;;;;;;;5.45;4.95;;;;;;;27.64;30.87;95606.94;1779870;81;21055;-65
2022/07/25 08:33:49;;;;;;;5.78;5.28;;;;;;;27.77;31.80;95610.80;1779986;81;20995;-66
2022/07/25 08:36:16;;;;;;;7.33;5.58;;;;;;;27.78;30.45;95603.05;1779977;81;21552;-65
2022/07/25 08:38:43;;;;;;;5.53;4.95;;;;;;;27.85;30.76;95599.34;1779509;81;21129;-65
2022/07/25 08:41:09;;;;;;;7.97;5.50;;;;;;;28.05;30.96;95602.02;1780000;81;20972;-65
2022/07/25 08:43:38;;;;;;;7.85;5.80;;;;;;;28.23;30.30;95597.31;1779732;81;21532;-65
2022/07/25 08:46:06;;;;;;;5.65;5.20;;;;;;;28.31;30.23;95598.84;1779899;81;21038;-65
2022/07/25 08:48:34;;;;;;;5.58;5.03;;;;;;;28.39;30.45;95598.16;1779964;81;21039;-65
2022/07/25 08:51:02;;;;;;;11.40;4.87;;;;;;;28.50;29.61;95595.86;1779892;81;21075;-65
2022/07/25 08:53:29;;;;;;;5.65;5.15;;;;;;;28.60;29.03;95597.63;1779919;81;20979;-65
2022/07/25 08:55:56;;;;;;;7.53;5.90;;;;;;;28.79;28.97;95592.72;1779761;81;20968;-65
2022/07/25 08:58:23;;;;;;;5.47;4.95;;;;;;;28.90;29.39;95597.16;1780109;81;21018;-65
2022/07/25 09:00:50;;;;;;;5.30;4.80;;;;;;;28.98;29.05;95598.69;1779772;81;21023;-65
2022/07/25 09:03:16;;;;;;;4.15;3.85;;;;;;;29.09;28.46;95600.44;1780044;80;21027;-65
2022/07/25 09:05:43;;;;;;;5.62;3.72;;;;;;;29.18;26.20;95599.59;1779766;81;21023;-65
2022/07/25 09:08:13;;;;;;;5.22;4.08;;;;;;;29.28;22.84;95595.50;1780033;81;20947;-65
2022/07/25 09:10:50;;;;;;;3.87;3.52;;;;;;;29.39;24.27;95595.87;1779850;81;21500;-65
2022/07/25 09:13:20;;;;;;;4.47;3.77;;;;;;;29.60;23.87;95601.14;1779807;81;21464;-65
2022/07/25 09:15:55;;;;;;;5.03;3.87;;;;;;;29.64;23.53;95605.30;1782410;80;21069;-65
2022/07/25 09:18:24;;;;;;;7.70;4.47;;;;;;;29.62;24.37;95605.42;1795474;80;21002;-65
2022/07/25 09:20:57;;;;;;;4.90;3.50;;;;;;;29.72;25.22;95608.17;1795290;80;20979;-65
2022/07/25 09:23:38;;;;;;;3.70;3.30;;;;;;;29.82;23.90;95602.20;1795427;80;21003;-65
2022/07/25 09:26:13;;;;;;;4.87;3.60;;;;;;;29.97;22.98;95602.09;1795253;80;21038;-65
2022/07/25 09:28:51;;;;;;;5.08;4.42;;;;;;;30.15;22.46;95601.33;1795524;80;21555;-65
2022/07/25 09:31:18;;;;;;;4.70;4.30;;;;;;;30.14;24.47;95601.83;1764798;80;20983;-65
2022/07/25 09:33:55;;;;;;;4.12;3.75;;;;;;;29.96;24.24;95603.59;1795368;80;21002;-65
2022/07/25 09:36:22;;;;;;;3.98;3.42;;;;;;;29.99;24.26;95606.04;1795414;80;20967;-65
2022/07/25 09:38:59;;;;;;;3.20;2.90;;;;;;;30.08;23.52;95599.69;1795472;80;20963;-65
2022/07/25 09:41:38;;;;;;;4.20;3.75;;;;;;;30.26;20.60;95592.99;1795473;80;21050;-65
2022/07/25 09:44:21;;;;;;;6.35;4.47;;;;;;;30.44;23.11;95597.14;1795363;80;21025;-65
2022/07/25 09:46:48;;;;;;;4.95;2.80;;;;;;;30.67;24.17;95592.65;1795135;80;21015;-65
2022/07/25 09:49:15;;;;;;;4.47;3.60;;;;;;;30.72;22.26;95590.33;1795422;80;21542;-65
2022/07/25 09:51:42;;;;;;;8.58;2.90;;;;;;;30.82;23.02;95591.19;1795403;80;21476;-65
2022/07/25 09:54:09;;;;;;;6.08;3.30;;;;;;;30.89;20.94;95584.09;1795502;80;21002;-65
2022/07/25 09:56:36;;;;;;;6.47;3.65;;;;;;;30.96;21.95;95585.19;1795620;80;21010;-65
2022/07/25 09:59:04;;;;;;;4.78;3.20;;;;;;;31.11;22.21;95583.30;1795519;80;21552;-65
2022/07/25 10:01:42;;;;;;;2.75;2.42;;;;;;;31.15;22.14;95579.27;1795526;80;20989;-65
2022/07/25 10:04:20;;;;;;;3.80;3.40;;;;;;;31.28;20.63;95582.96;1792490;80;21072;-65
2022/07/25 10:07:03;;;;;;;7.35;4.30;;;;;;;31.39;21.73;95581.37;1795739;80;21033;-65
2022/07/25 10:09:31;;;;;;;4.87;4.37;;;;;;;31.52;23.11;95582.34;1795314;80;20990;-65
2022/07/25 10:12:08;;;;;;;7.33;4.12;;;;;;;31.29;23.82;95580.58;1795514;80;21011;-65
2022/07/25 10:14:38;;;;;;;5.08;3.52;;;;;;;31.58;24.37;95576.27;1795666;80;21018;-65
2022/07/25 10:17:05;;;;;;;3.40;3.12;;;;;;;31.83;21.28;95573.22;1795398;80;20983;-65
2022/07/25 10:19:47;;;;;;;7.67;4.72;;;;;;;32.15;22.30;95563.53;1795596;80;21532;-66
2022/07/25 10:22:14;;;;;;;6.80;4.90;;;;;;;32.39;23.39;95560.09;1794716;80;20999;-65
2022/07/25 10:24:46;;;;;;;5.72;5.22;;;;;;;32.42;24.82;95567.94;1795401;80;21018;-66
2022/07/25 10:27:22;;;;;;;5.60;4.87;;;;;;;32.31;25.50;95559.53;1795611;80;21018;-65
2022/07/25 10:29:52;;;;;;;6.75;5.55;;;;;;;32.25;25.66;95554.20;1795919;80;20947;-65
2022/07/25 10:32:19;;;;;;;8.20;5.42;;;;;;;32.11;25.24;95551.58;1795619;80;21038;-65
2022/07/25 10:34:53;;;;;;;5.92;5.42;;;;;;;32.23;25.36;95550.80;1790639;80;21110;-65
2022/07/25 10:37:28;;;;;;;6.17;5.00;;;;;;;32.16;25.09;95547.00;1795520;80;20970;-65
2022/07/25 10:39:55;;;;;;;5.53;4.97;;;;;;;32.21;25.32;95541.06;1795343;80;21003;-65
2022/07/25 10:42:25;;;;;;;8.08;5.28;;;;;;;32.47;25.23;95538.27;1795250;80;21046;-66
2022/07/25 10:44:56;;;;;;;5.50;4.87;;;;;;;32.64;24.91;95544.16;1795331;80;21034;-66
2022/07/25 10:47:26;;;;;;;5.92;4.90;;;;;;;32.69;24.84;95537.69;1795613;80;21046;-66
2022/07/25 10:49:59;;;;;;;5.95;4.92;;;;;;;32.62;24.46;95537.16;1795575;80;21058;-66
2022/07/25 10:52:29;;;;;;;6.28;5.30;;;;;;;32.66;24.84;95535.30;1795429;80;21018;-66
2022/07/25 10:54:58;;;;;;;6.22;5.20;;;;;;;32.85;24.97;95536.87;1795502;80;21014;-66
2022/07/25 10:57:27;;;;;;;5.00;4.60;;;;;;;32.98;24.06;95534.49;1795409;80;21587;-66
2022/07/25 10:59:58;;;;;;;6.62;4.45;;;;;;;33.11;24.39;95523.12;1795785;80;21046;-66
2022/07/25 11:02:26;;;;;;;6.60;4.80;;;;;;;33.16;23.96;95516.64;1795159;80;21003;-66
2022/07/25 11:05:01;;;;;;;5.03;4.58;;;;;;;33.32;23.84;95518.52;1795551;80;21026;-65
2022/07/25 11:07:34;;;;;;;5.00;4.40;;;;;;;33.43;23.47;95512.36;1795485;80;21531;-66
2022/07/25 11:10:01;;;;;;;6.80;4.40;;;;;;;33.61;23.05;95516.63;1794639;80;20987;-66
2022/07/25 11:12:27;;;;;;;5.85;4.85;;;;;;;33.63;22.38;95511.00;1795537;80;21014;-66
2022/07/25 11:15:05;;;;;;;6.97;4.58;;;;;;;33.63;22.72;95513.73;1795760;80;21030;-66
2022/07/25 11:17:33;;;;;;;7.60;4.60;;;;;;;33.77;22.37;95495.25;1789458;80;21058;-66
2022/07/25 11:20:04;;;;;;;5.97;3.90;;;;;;;33.77;21.46;95496.63;1787044;80;20971;-66
2022/07/25 11:22:33;;;;;;;6.08;4.00;;;;;;;33.90;21.79;95498.81;1787261;80;21014;-65
2022/07/25 11:25:01;;;;;;;4.50;4.10;;;;;;;33.95;20.95;95499.14;1787023;80;21527;-65
2022/07/25 11:27:32;;;;;;;3.90;3.60;;;;;;;34.01;21.56;95498.95;1786997;80;21504;-66
2022/07/25 11:30:15;;;;;;;7.97;4.12;;;;;;;34.04;20.76;95493.11;1787138;80;21122;-66
2022/07/25 11:32:46;;;;;;;6.83;4.22;;;;;;;33.90;20.69;95493.34;1787024;80;21043;-66
2022/07/25 11:35:15;;;;;;;7.10;3.70;;;;;;;33.74;20.32;95492.88;1787103;80;21062;-65
2022/07/25 11:37:47;;;;;;;4.28;3.77;;;;;;;33.84;20.13;95485.81;1787183;80;20971;-65
2022/07/25 11:40:17;;;;;;;6.22;3.77;;;;;;;33.86;19.86;95486.49;1786541;80;21062;-65
2022/07/25 11:42:51;;;;;;;4.85;3.90;;;;;;;33.99;19.84;95485.94;1787276;80;20975;-65
2022/07/25 11:45:27;;;;;;;4.60;3.77;;;;;;;34.06;19.59;95478.73;1787233;80;21037;-65
2022/07/25 11:48:10;;;;;;;8.20;3.92;;;;;;;34.08;19.64;95473.13;1754349;80;21007;-65
2022/07/25 11:50:39;;;;;;;;;;;;;;;34.23;19.28;95473.58;1789812;80;21050;-65